Time,TemperatureF,DewpointF,PressureIn,WindDirection,WindDirectionDegrees,WindSpeedMPH,WindSpeedGustMPH,Humidity,HourlyPrecipIn,Conditions,Clouds,dailyrainin,SoftwareType,DateUTC
2013-01-12 00:02:00,39.6,14.2,29.91,ESE,112,0.0,-999.0,35,-99.99,,,0.00,Acu-Link.com,2013-01-12 07:02:00,
2013-01-12 00:17:00,37.6,15.5,29.90,NNE,22,0.0,-999.0,40,-99.99,,,0.00,Acu-Link.com,2013-01-12 07:17:00,
2013-01-12 00:32:00,36.5,15.1,29.89,NNW,337,0.0,-999.0,41,-99.99,,,0.00,Acu-Link.com,2013-01-12 07:32:00,
2013-01-12 00:47:00,36.5,15.6,29.90,WNW,292,0.0,-999.0,42,-99.99,,,0.00,Acu-Link.com,2013-01-12 07:47:00,
2013-01-12 01:02:00,37.4,15.9,29.89,NW,315,5.1,-999.0,41,-99.99,,,0.00,Acu-Link.com,2013-01-12 08:02:00,
2013-01-12 01:18:00,38.7,14.0,29.89,NNW,337,4.3,-999.0,36,-99.99,,,0.00,Acu-Link.com,2013-01-12 08:18:00,
2013-01-12 01:33:00,37.8,13.9,29.89,NW,315,1.6,-999.0,37,-99.99,,,0.00,Acu-Link.com,2013-01-12 08:33:00,
2013-01-12 01:48:00,37.6,13.7,29.90,West,270,0.0,-999.0,37,-99.99,,,0.00,Acu-Link.com,2013-01-12 08:48:00,
2013-01-12 02:10:00,37.9,14.6,29.90,NNW,337,0.0,-999.0,38,-99.99,,,0.00,Acu-Link.com,2013-01-12 09:10:00,
2013-01-12 02:25:00,37.8,14.5,29.90,NNE,22,0.0,-999.0,38,-99.99,,,0.00,Acu-Link.com,2013-01-12 09:25:00,
2013-01-12 02:40:00,37.0,12.6,29.90,NNW,337,3.1,-999.0,36,-99.99,,,0.00,Acu-Link.com,2013-01-12 09:40:00,
2013-01-12 02:56:00,37.4,11.6,29.89,WNW,292,1.6,-999.0,34,-99.99,,,0.00,Acu-Link.com,2013-01-12 09:56:00,
2013-01-12 03:11:00,38.1,11.6,29.89,NNE,22,0.0,-999.0,33,-99.99,,,0.00,Acu-Link.com,2013-01-12 10:11:00,
2013-01-12 03:26:00,37.6,11.8,29.90,NNW,337,2.7,-999.0,34,-99.99,,,0.00,Acu-Link.com,2013-01-12 10:26:00,
2013-01-12 03:42:00,37.9,11.4,29.89,NW,315,2.2,-999.0,33,-99.99,,,0.00,Acu-Link.com,2013-01-12 10:42:00,
2013-01-12 03:57:00,38.1,10.9,29.88,NNW,337,0.0,-999.0,32,-99.99,,,0.00,Acu-Link.com,2013-01-12 10:57:00,
2013-01-12 04:12:00,37.2,11.5,29.88,WNW,292,0.0,-999.0,34,-99.99,,,0.00,Acu-Link.com,2013-01-12 11:12:00,
2013-01-12 04:27:00,36.9,11.1,29.88,NNW,337,0.0,-999.0,34,-99.99,,,0.00,Acu-Link.com,2013-01-12 11:27:00,
2013-01-12 04:42:00,37.2,12.8,29.88,WNW,292,0.0,-999.0,36,-99.99,,,0.00,Acu-Link.com,2013-01-12 11:42:00,
2013-01-12 04:58:00,36.1,11.8,29.87,WSW,247,0.0,-999.0,36,-99.99,,,0.00,Acu-Link.com,2013-01-12 11:58:00,
2013-01-12 05:13:00,35.4,11.8,29.88,SSW,202,0.0,-999.0,37,-99.99,,,0.00,Acu-Link.com,2013-01-12 12:13:00,
2013-01-12 05:28:00,37.8,11.3,29.89,SSE,157,0.0,-999.0,33,-99.99,,,0.00,Acu-Link.com,2013-01-12 12:28:00,
2013-01-12 05:43:00,36.7,12.3,29.89,NNW,337,0.0,-999.0,36,-99.99,,,0.00,Acu-Link.com,2013-01-12 12:43:00,
2013-01-12 05:59:00,37.4,12.9,29.89,WNW,292,2.7,-999.0,36,-99.99,,,0.00,Acu-Link.com,2013-01-12 12:59:00,
2013-01-12 06:14:00,38.1,12.9,29.89,NNW,337,2.7,-999.0,35,-99.99,,,0.00,Acu-Link.com,2013-01-12 13:14:00,
2013-01-12 06:29:00,38.1,14.8,29.91,North,0,5.8,-999.0,38,-99.99,,,0.00,Acu-Link.com,2013-01-12 13:29:00,
2013-01-12 06:45:00,41.9,13.5,29.91,NW,315,6.7,-999.0,31,-99.99,,,0.00,Acu-Link.com,2013-01-12 13:45:00,
2013-01-12 07:00:00,42.4,13.2,29.92,NNW,337,4.7,-999.0,30,-99.99,,,0.00,Acu-Link.com,2013-01-12 14:00:00,
2013-01-12 07:15:00,43.0,12.9,29.93,NNW,337,0.0,-999.0,29,-99.99,,,0.00,Acu-Link.com,2013-01-12 14:15:00,
2013-01-12 07:30:00,42.4,13.2,29.94,North,0,0.0,-999.0,30,-99.99,,,0.00,Acu-Link.com,2013-01-12 14:30:00,
2013-01-12 07:45:00,42.6,14.9,29.94,NNW,337,6.3,-999.0,32,-99.99,,,0.00,Acu-Link.com,2013-01-12 14:45:00,
2013-01-12 08:01:00,43.9,16.0,29.95,NW,315,12.5,-999.0,32,-99.99,,,0.00,Acu-Link.com,2013-01-12 15:01:00,
2013-01-12 08:16:00,43.9,17.4,29.97,NW,315,10.3,-999.0,34,-99.99,,,0.00,Acu-Link.com,2013-01-12 15:16:00,
2013-01-12 08:31:00,44.4,18.5,29.97,NNW,337,9.8,-999.0,35,-99.99,,,0.00,Acu-Link.com,2013-01-12 15:31:00,
2013-01-12 08:46:00,46.2,18.7,29.98,NNW,337,10.3,-999.0,33,-99.99,,,0.00,Acu-Link.com,2013-01-12 15:46:00,
2013-01-12 09:02:00,47.5,17.6,29.99,NNW,337,14.1,-999.0,30,-99.99,,,0.00,Acu-Link.com,2013-01-12 16:02:00,
2013-01-12 09:17:00,48.2,18.2,30.00,NNW,337,14.1,-999.0,30,-99.99,,,0.00,Acu-Link.com,2013-01-12 16:17:00,
2013-01-12 09:32:00,49.1,19.0,30.00,NNE,22,14.1,-999.0,30,-99.99,,,0.00,Acu-Link.com,2013-01-12 16:32:00,
2013-01-12 09:47:00,50.2,18.4,30.01,NNW,337,15.0,-999.0,28,-99.99,,,0.00,Acu-Link.com,2013-01-12 16:47:00,
2013-01-12 10:02:00,50.9,17.3,30.01,North,0,14.1,-999.0,26,-99.99,,,0.00,Acu-Link.com,2013-01-12 17:02:00,
2013-01-12 10:18:00,51.8,15.2,30.02,North,0,12.5,-999.0,23,-99.99,,,0.00,Acu-Link.com,2013-01-12 17:18:00,
2013-01-12 10:33:00,52.5,13.7,30.02,NNW,337,12.5,-999.0,21,-99.99,,,0.00,Acu-Link.com,2013-01-12 17:33:00,
2013-01-12 10:48:00,52.7,11.6,30.02,NNW,337,16.6,-999.0,19,-99.99,,,0.00,Acu-Link.com,2013-01-12 17:48:00,
2013-01-12 11:03:00,53.6,9.9,30.02,NNW,337,14.1,-999.0,17,-99.99,,,0.00,Acu-Link.com,2013-01-12 18:03:00,
2013-01-12 11:19:00,53.6,4.0,30.02,North,0,11.0,-999.0,13,-99.99,,,0.00,Acu-Link.com,2013-01-12 18:19:00,
2013-01-12 11:34:00,54.0,0.7,30.01,NE,45,15.0,-999.0,11,-99.99,,,0.00,Acu-Link.com,2013-01-12 18:34:00,
2013-01-12 11:49:00,54.0,0.7,30.01,NNE,22,11.9,-999.0,11,-99.99,,,0.00,Acu-Link.com,2013-01-12 18:49:00,
2013-01-12 12:04:00,55.6,-2.3,30.00,North,0,18.6,-999.0,9,-99.99,,,0.00,Acu-Link.com,2013-01-12 19:04:00,
2013-01-12 12:20:00,55.2,-14.5,30.00,NNE,22,13.0,-999.0,5,-99.99,,,0.00,Acu-Link.com,2013-01-12 19:20:00,
2013-01-12 12:35:00,55.8,-10.5,29.99,NNE,22,14.5,-999.0,6,-99.99,,,0.00,Acu-Link.com,2013-01-12 19:35:00,
2013-01-12 12:50:00,56.7,-9.8,29.98,NNE,22,7.8,-999.0,6,-99.99,,,0.00,Acu-Link.com,2013-01-12 19:50:00,
2013-01-12 13:06:00,56.7,-9.8,29.98,ESE,112,11.0,-999.0,6,-99.99,,,0.00,Acu-Link.com,2013-01-12 20:06:00,
2013-01-12 13:21:00,57.0,-13.2,29.97,NW,315,12.5,-999.0,5,-99.99,,,0.00,Acu-Link.com,2013-01-12 20:21:00,
2013-01-12 13:36:00,57.0,-13.2,29.97,North,0,11.9,-999.0,5,-99.99,,,0.00,Acu-Link.com,2013-01-12 20:36:00,
2013-01-12 13:51:00,58.3,-16.7,29.97,NW,315,11.4,-999.0,4,-99.99,,,0.00,Acu-Link.com,2013-01-12 20:51:00,
2013-01-12 13:52:00,58.3,-16.7,29.97,NW,315,11.4,-999.0,4,-99.99,,,0.00,Acu-Link.com,2013-01-12 20:52:00,
2013-01-12 14:07:00,56.5,-18.0,29.97,NNW,337,9.8,-999.0,4,-99.99,,,0.00,Acu-Link.com,2013-01-12 21:07:00,
2013-01-12 14:22:00,57.0,-17.6,29.96,NNW,337,7.4,-999.0,4,-99.99,,,0.00,Acu-Link.com,2013-01-12 21:22:00,
2013-01-12 14:37:00,56.3,-10.1,29.97,NNW,337,2.2,-999.0,6,-99.99,,,0.00,Acu-Link.com,2013-01-12 21:37:00,
2013-01-12 14:53:00,57.4,-6.2,29.97,WNW,292,10.3,-999.0,7,-99.99,,,0.00,Acu-Link.com,2013-01-12 21:53:00,
2013-01-12 15:08:00,56.8,-6.6,29.97,NNW,337,12.5,-999.0,7,-99.99,,,0.00,Acu-Link.com,2013-01-12 22:08:00,
2013-01-12 15:23:00,58.1,-5.6,29.96,WNW,292,9.4,-999.0,7,-99.99,,,0.00,Acu-Link.com,2013-01-12 22:23:00,
2013-01-12 15:38:00,57.0,-3.7,29.97,North,0,7.8,-999.0,8,-99.99,,,0.00,Acu-Link.com,2013-01-12 22:38:00,
2013-01-12 15:54:00,57.0,-9.6,29.96,WNW,292,4.7,-999.0,6,-99.99,,,0.00,Acu-Link.com,2013-01-12 22:54:00,
2013-01-12 16:09:00,56.1,-18.2,29.96,NNW,337,2.7,-999.0,4,-99.99,,,0.00,Acu-Link.com,2013-01-12 23:09:00,
2013-01-12 16:24:00,56.3,-13.7,29.96,NNW,337,3.8,-999.0,5,-99.99,,,0.00,Acu-Link.com,2013-01-12 23:24:00,
2013-01-12 16:39:00,55.9,-14.0,29.95,NNE,22,10.3,-999.0,5,-99.99,,,0.00,Acu-Link.com,2013-01-12 23:39:00,
2013-01-12 16:54:00,54.9,-14.8,29.96,NW,315,3.8,-999.0,5,-99.99,,,0.00,Acu-Link.com,2013-01-12 23:54:00,
2013-01-12 17:10:00,54.5,-15.0,29.96,North,0,9.4,-999.0,5,-99.99,,,0.00,Acu-Link.com,2013-01-13 00:10:00,
2013-01-12 17:25:00,54.7,-24.7,29.95,NNW,337,11.0,-999.0,3,-99.99,,,0.00,Acu-Link.com,2013-01-13 00:25:00,
2013-01-12 17:40:00,52.5,-16.4,29.96,NNE,22,6.3,-999.0,5,-99.99,,,0.00,Acu-Link.com,2013-01-13 00:40:00,
2013-01-12 17:55:00,51.6,-10.4,29.95,NNE,22,6.7,-999.0,7,-99.99,,,0.00,Acu-Link.com,2013-01-13 00:55:00,
2013-01-12 18:11:00,50.4,-8.7,29.96,North,0,4.7,-999.0,8,-99.99,,,0.00,Acu-Link.com,2013-01-13 01:11:00,
2013-01-12 18:26:00,49.3,-9.5,29.96,North,0,5.1,-999.0,8,-99.99,,,0.00,Acu-Link.com,2013-01-13 01:26:00,
2013-01-12 18:41:00,48.6,-7.7,29.96,NNW,337,0.0,-999.0,9,-99.99,,,0.00,Acu-Link.com,2013-01-13 01:41:00,
2013-01-12 18:56:00,47.8,-8.2,29.96,NW,315,2.7,-999.0,9,-99.99,,,0.00,Acu-Link.com,2013-01-13 01:56:00,
2013-01-12 19:11:00,46.9,-6.7,29.97,NW,315,4.3,-999.0,10,-99.99,,,0.00,Acu-Link.com,2013-01-13 02:11:00,
2013-01-12 19:27:00,45.9,-7.6,29.97,NW,315,5.8,-999.0,10,-99.99,,,0.00,Acu-Link.com,2013-01-13 02:27:00,
2013-01-12 19:42:00,45.1,-6.2,29.97,NW,315,4.7,-999.0,11,-99.99,,,0.00,Acu-Link.com,2013-01-13 02:42:00,
2013-01-12 19:57:00,44.2,-5.1,29.98,NW,315,3.1,-999.0,12,-99.99,,,0.00,Acu-Link.com,2013-01-13 02:57:00,
2013-01-12 20:12:00,42.6,-4.7,29.97,NNE,22,0.0,-999.0,13,-99.99,,,0.00,Acu-Link.com,2013-01-13 03:12:00,
2013-01-12 20:27:00,43.2,-6.0,29.98,NE,45,0.0,-999.0,12,-99.99,,,0.00,Acu-Link.com,2013-01-13 03:27:00,
2013-01-12 20:42:00,41.7,-5.4,29.97,NE,45,0.0,-999.0,13,-99.99,,,0.00,Acu-Link.com,2013-01-13 03:42:00,
2013-01-12 20:58:00,41.9,-6.9,29.98,NNW,337,0.0,-999.0,12,-99.99,,,0.00,Acu-Link.com,2013-01-13 03:58:00,
2013-01-12 21:13:00,43.5,-9.4,29.98,WNW,292,0.0,-999.0,10,-99.99,,,0.00,Acu-Link.com,2013-01-13 04:13:00,
2013-01-12 21:28:00,43.3,-9.5,29.99,NNW,337,0.0,-999.0,10,-99.99,,,0.00,Acu-Link.com,2013-01-13 04:28:00,
2013-01-12 21:43:00,42.6,-10.1,29.99,WNW,292,0.0,-999.0,10,-99.99,,,0.00,Acu-Link.com,2013-01-13 04:43:00,
2013-01-12 21:58:00,41.4,-9.1,30.00,NNW,337,3.1,-999.0,11,-99.99,,,0.00,Acu-Link.com,2013-01-13 04:58:00,
2013-01-12 22:14:00,41.2,-7.5,30.00,NW,315,5.8,-999.0,12,-99.99,,,0.00,Acu-Link.com,2013-01-13 05:14:00,
2013-01-12 22:29:00,40.8,-7.8,30.00,NNW,337,4.7,-999.0,12,-99.99,,,0.00,Acu-Link.com,2013-01-13 05:29:00,
2013-01-12 22:44:00,40.1,-6.7,30.00,NNW,337,4.7,-999.0,13,-99.99,,,0.00,Acu-Link.com,2013-01-13 05:44:00,
2013-01-12 23:00:00,39.6,-7.2,30.00,NW,315,4.3,-999.0,13,-99.99,,,0.00,Acu-Link.com,2013-01-13 06:00:00,
2013-01-12 23:15:00,37.6,-4.5,30.00,NE,45,0.0,-999.0,16,-99.99,,,0.00,Acu-Link.com,2013-01-13 06:15:00,
2013-01-12 23:30:00,37.6,-4.5,30.00,NNW,337,0.0,-999.0,16,-99.99,,,0.00,Acu-Link.com,2013-01-13 06:30:00,
2013-01-12 23:45:00,36.5,-5.4,30.00,North,0,4.7,-999.0,16,-99.99,,,0.00,Acu-Link.com,2013-01-13 06:45:00,